Time;durP1;ratioP1;P1;durP2;ratioP2;P2;SDS_P1;SDS_P2;PMS_P1;PMS_P2;Temp;Humidity;BMP_temperature;BMP_pressure;BME280_temperature;BME280_humidity;BME280_pressure;Samples;Min_cycle;Max_cycle;Signal;HPM_P1;HPM_P2
2021/06/19 00:00:04;;;;;;;25.57;23.33;;;23.30;99.90;;;;;;5114477;28;20415;-87
2021/06/19 00:02:29;;;;;;;27.97;25.80;;;23.40;99.90;;;;;;5115656;28;20170;-85
2021/06/19 00:04:55;;;;;;;27.60;25.57;;;23.30;99.90;;;;;;5115034;28;20418;-87
2021/06/19 00:07:21;;;;;;;29.13;26.80;;;23.40;99.90;;;;;;5115555;28;20276;-86
2021/06/19 00:09:46;;;;;;;27.00;25.00;;;23.40;99.90;;;;;;5115669;28;20632;-87
2021/06/19 00:12:12;;;;;;;29.27;26.80;;;23.40;99.90;;;;;;5114572;28;20216;-86
2021/06/19 00:14:38;;;;;;;27.90;25.57;;;23.30;99.90;;;;;;5114925;28;20183;-88
2021/06/19 00:17:04;;;;;;;28.20;26.00;;;23.30;99.90;;;;;;5115473;28;20233;-88
2021/06/19 00:19:29;;;;;;;30.00;27.53;;;23.20;99.90;;;;;;5114906;28;20173;-88
2021/06/19 00:21:55;;;;;;;29.40;27.30;;;23.10;99.90;;;;;;5115298;28;20410;-88
2021/06/19 00:24:22;;;;;;;27.80;25.67;;;23.30;99.90;;;;;;5115358;28;20270;-87
2021/06/19 00:26:49;;;;;;;28.60;26.17;;;23.10;99.90;;;;;;5115045;28;20170;-87
2021/06/19 00:29:15;;;;;;;28.07;25.97;;;22.90;99.90;;;;;;5113980;28;20909;-86
2021/06/19 00:31:41;;;;;;;29.67;27.17;;;22.90;99.90;;;;;;5127931;27;20512;-87
2021/06/19 00:34:08;;;;;;;29.10;26.70;;;22.70;99.90;;;;;;5134207;27;20429;-88
2021/06/19 00:36:33;;;;;;;29.27;26.77;;;22.70;99.90;;;;;;5135671;27;20488;-87
2021/06/19 00:38:59;;;;;;;34.87;31.97;;;22.60;99.90;;;;;;5119676;27;20514;-86
2021/06/19 00:41:26;;;;;;;33.67;30.57;;;22.50;99.90;;;;;;5114655;28;20184;-85
2021/06/19 00:43:51;;;;;;;32.47;29.97;;;22.50;99.90;;;;;;5114912;28;20171;-85
2021/06/19 00:46:17;;;;;;;31.53;29.17;;;22.60;99.90;;;;;;5114814;28;20405;-83
2021/06/19 00:48:43;;;;;;;31.77;29.17;;;22.60;99.90;;;;;;5114841;28;20203;-84
2021/06/19 00:51:08;;;;;;;31.33;28.43;;;22.50;99.90;;;;;;5114785;28;20581;-85
2021/06/19 00:53:34;;;;;;;31.57;28.73;;;22.40;99.90;;;;;;5114787;28;20173;-86
2021/06/19 00:56:03;;;;;;;31.53;29.07;;;22.40;99.90;;;;;;5114792;28;20624;-86
2021/06/19 00:58:31;;;;;;;30.20;27.80;;;22.40;99.90;;;;;;5114264;28;20179;-86
2021/06/19 01:00:57;;;;;;;30.53;28.23;;;22.40;99.90;;;;;;5114600;28;20435;-85
2021/06/19 01:03:23;;;;;;;29.93;27.40;;;22.40;99.90;;;;;;5114481;28;20925;-85
2021/06/19 01:05:50;;;;;;;30.60;27.93;;;22.30;99.90;;;;;;5114527;28;20182;-85
2021/06/19 01:08:16;;;;;;;29.03;26.77;;;22.20;99.90;;;;;;5129844;27;20556;-85
2021/06/19 01:10:42;;;;;;;31.77;29.17;;;22.20;99.90;;;;;;5133646;27;20420;-85
2021/06/19 01:13:07;;;;;;;29.30;27.00;;;22.20;99.90;;;;;;5134321;27;20207;-85
2021/06/19 01:15:33;;;;;;;30.67;28.00;;;22.30;99.90;;;;;;5134682;27;20213;-86
2021/06/19 01:18:00;;;;;;;30.47;28.17;;;22.20;99.90;;;;;;5134830;27;20173;-86
2021/06/19 01:20:26;;;;;;;30.03;27.60;;;22.10;99.90;;;;;;5133354;27;20193;-86
2021/06/19 01:22:54;;;;;;;30.60;28.20;;;22.00;99.90;;;;;;5134763;27;20431;-86
2021/06/19 01:25:22;;;;;;;29.40;27.20;;;22.00;99.90;;;;;;5133812;27;20210;-85
2021/06/19 01:27:52;;;;;;;30.30;27.47;;;22.00;99.90;;;;;;5134222;27;20477;-86
2021/06/19 01:30:19;;;;;;;31.17;28.67;;;22.00;99.90;;;;;;5134610;27;20411;-87
2021/06/19 01:32:45;;;;;;;30.33;27.93;;;22.00;99.90;;;;;;5134631;27;20423;-87
2021/06/19 01:35:11;;;;;;;30.47;28.07;;;21.90;99.90;;;;;;5134527;27;20411;-87
2021/06/19 01:37:46;;;;;;;30.50;28.00;;;21.90;99.90;;;;;;5134425;27;20417;-87
2021/06/19 01:40:17;;;;;;;31.47;28.87;;;21.80;99.90;;;;;;5134553;27;20410;-87
2021/06/19 01:42:45;;;;;;;33.13;30.57;;;21.90;99.90;;;;;;5133989;27;20502;-86
2021/06/19 01:45:14;;;;;;;30.30;27.53;;;21.80;99.90;;;;;;5134560;27;20804;-87
2021/06/19 01:47:40;;;;;;;28.33;26.13;;;21.80;99.90;;;;;;5125182;27;20533;-87
2021/06/19 01:50:08;;;;;;;30.83;28.20;;;21.70;99.90;;;;;;5134638;27;20411;-89
2021/06/19 01:52:33;;;;;;;32.13;29.63;;;21.70;99.90;;;;;;5134626;27;20174;-88
2021/06/19 01:54:59;;;;;;;28.57;26.37;;;21.80;99.90;;;;;;5134427;27;20906;-88
2021/06/19 01:57:25;;;;;;;33.40;30.80;;;21.80;99.90;;;;;;5133985;27;20583;-89
2021/06/19 02:00:05;;;;;;;30.10;27.77;;;21.80;99.90;;;;;;5134459;27;20618;-89
2021/06/19 02:02:30;;;;;;;33.00;30.37;;;21.90;99.90;;;;;;5133056;27;20643;-89
2021/06/19 02:04:56;;;;;;;32.40;29.77;;;22.00;99.90;;;;;;5134515;27;20422;-89
2021/06/19 02:07:22;;;;;;;29.10;27.00;;;22.00;99.90;;;;;;5134174;27;20612;-87
2021/06/19 02:09:47;;;;;;;30.77;28.23;;;21.90;99.90;;;;;;5134300;27;20206;-89
2021/06/19 02:12:13;;;;;;;31.30;28.37;;;21.80;99.90;;;;;;5133747;27;20639;-88
2021/06/19 02:14:39;;;;;;;29.50;27.20;;;21.80;99.90;;;;;;5134164;27;20169;-88
2021/06/19 02:17:05;;;;;;;32.23;29.57;;;21.80;99.90;;;;;;5134129;27;20411;-88
2021/06/19 02:19:30;;;;;;;29.50;27.07;;;21.80;99.90;;;;;;5134023;27;20178;-88
2021/06/19 02:21:56;;;;;;;31.53;29.13;;;21.60;99.90;;;;;;5133940;27;20644;-88
2021/06/19 02:24:21;;;;;;;32.23;29.70;;;21.50;99.90;;;;;;5133893;28;20165;-88
2021/06/19 02:26:48;;;;;;;31.17;28.63;;;21.40;99.90;;;;;;5133544;28;20262;-86
2021/06/19 02:29:14;;;;;;;31.60;29.00;;;21.40;99.90;;;;;;5133816;27;20172;-85
2021/06/19 02:31:39;;;;;;;31.40;29.00;;;21.40;99.90;;;;;;5133830;28;20422;-86
2021/06/19 02:34:05;;;;;;;35.13;32.07;;;21.40;99.90;;;;;;5133736;28;20197;-87
2021/06/19 02:36:31;;;;;;;31.23;28.73;;;21.60;99.90;;;;;;5136488;27;20191;-86
2021/06/19 02:38:56;;;;;;;32.30;29.80;;;21.70;99.90;;;;;;5137034;27;20192;-86
2021/06/19 02:41:22;;;;;;;31.60;29.50;;;21.60;99.90;;;;;;5117060;28;20207;-86
2021/06/19 02:43:47;;;;;;;34.40;31.70;;;21.60;99.90;;;;;;5118618;27;20273;-86
2021/06/19 02:46:13;;;;;;;33.40;30.70;;;21.60;99.90;;;;;;5123651;27;20193;-87
2021/06/19 02:48:40;;;;;;;31.67;29.17;;;21.80;99.90;;;;;;5115972;28;20208;-86
2021/06/19 02:51:05;;;;;;;31.60;29.10;;;21.90;99.90;;;;;;5117377;27;20249;-87
2021/06/19 02:53:31;;;;;;;33.73;31.33;;;21.70;99.90;;;;;;5118207;28;20461;-83
2021/06/19 02:55:57;;;;;;;34.93;32.07;;;21.80;99.90;;;;;;5116764;28;20173;-86
2021/06/19 02:58:23;;;;;;;34.10;31.40;;;21.80;99.90;;;;;;5117024;28;20426;-85
2021/06/19 03:00:50;;;;;;;33.50;30.97;;;21.80;99.90;;;;;;5115783;28;20178;-87
2021/06/19 03:03:15;;;;;;;33.03;30.40;;;21.80;99.90;;;;;;5121987;27;20189;-85
2021/06/19 03:05:41;;;;;;;34.10;31.03;;;21.70;99.90;;;;;;5137554;27;20415;-86
2021/06/19 03:08:08;;;;;;;31.40;29.00;;;21.70;99.90;;;;;;5135958;27;20224;-86
2021/06/19 03:10:37;;;;;;;33.57;30.67;;;21.70;99.90;;;;;;5137307;27;20184;-87
2021/06/19 03:13:03;;;;;;;33.33;30.17;;;21.70;99.90;;;;;;5136861;27;20460;-87
2021/06/19 03:15:29;;;;;;;33.20;30.70;;;21.60;99.90;;;;;;5136011;27;20419;-87
2021/06/19 03:17:54;;;;;;;33.20;30.50;;;21.50;99.90;;;;;;5137315;27;20422;-85
2021/06/19 03:20:21;;;;;;;35.50;32.30;;;21.50;99.90;;;;;;5137164;27;20185;-86
2021/06/19 03:22:52;;;;;;;35.70;32.67;;;21.60;99.90;;;;;;5137138;27;20173;-87
2021/06/19 03:25:24;;;;;;;35.23;32.43;;;21.80;99.90;;;;;;5137191;27;20401;-87
2021/06/19 03:27:50;;;;;;;36.30;33.40;;;21.80;99.90;;;;;;5136682;27;20471;-88
2021/06/19 03:30:18;;;;;;;34.33;31.63;;;21.80;99.90;;;;;;5137032;27;20395;-86
2021/06/19 03:32:44;;;;;;;32.93;30.43;;;21.90;99.90;;;;;;5136979;27;20447;-86
2021/06/19 03:35:10;;;;;;;35.77;32.57;;;22.00;99.90;;;;;;5136986;27;20961;-87
2021/06/19 03:37:37;;;;;;;34.47;31.60;;;21.90;99.90;;;;;;5136942;27;20198;-88
2021/06/19 03:40:05;;;;;;;33.93;31.23;;;22.00;99.90;;;;;;5136877;27;20404;-87
2021/06/19 03:42:31;;;;;;;34.17;31.37;;;22.10;99.90;;;;;;5134603;27;20919;-88
2021/06/19 03:44:56;;;;;;;34.60;31.63;;;22.10;99.90;;;;;;5136764;27;20411;-87
2021/06/19 03:47:22;;;;;;;34.47;31.80;;;22.10;99.90;;;;;;5135597;27;20210;-87
2021/06/19 03:49:48;;;;;;;33.13;30.23;;;22.10;99.90;;;;;;5135447;27;20161;-88
2021/06/19 03:52:13;;;;;;;33.37;30.77;;;22.20;99.90;;;;;;5136597;27;20710;-87
2021/06/19 03:54:39;;;;;;;33.37;30.60;;;22.20;99.90;;;;;;5136547;27;20166;-87
2021/06/19 03:57:06;;;;;;;34.03;30.97;;;22.30;99.90;;;;;;5136233;27;20257;-87
2021/06/19 03:59:32;;;;;;;33.67;30.70;;;22.30;99.90;;;;;;5136426;27;20172;-87
2021/06/19 04:01:58;;;;;;;34.13;31.53;;;22.30;99.90;;;;;;5136378;27;20409;-88
2021/06/19 04:04:24;;;;;;;34.77;31.67;;;22.20;99.90;;;;;;5136198;27;20895;-87
2021/06/19 04:06:49;;;;;;;34.27;31.60;;;22.30;99.90;;;;;;5137053;27;20166;-91
2021/06/19 04:09:15;;;;;;;35.13;32.00;;;22.30;99.90;;;;;;5136994;27;20174;-90
2021/06/19 04:11:42;;;;;;;35.57;32.37;;;22.30;99.90;;;;;;5134996;27;20962;-88
2021/06/19 04:14:08;;;;;;;33.50;30.80;;;22.30;99.90;;;;;;5135860;27;20455;-91
2021/06/19 04:16:33;;;;;;;33.00;30.40;;;22.30;99.90;;;;;;5136473;27;20899;-88
2021/06/19 04:18:59;;;;;;;32.23;29.47;;;22.30;99.90;;;;;;5136457;27;20162;-90
2021/06/19 04:21:24;;;;;;;33.20;30.50;;;22.50;99.90;;;;;;5136405;27;20179;-85
2021/06/19 04:23:50;;;;;;;32.53;29.90;;;22.40;99.90;;;;;;5136363;27;20246;-89
2021/06/19 04:26:16;;;;;;;32.87;30.37;;;22.50;99.90;;;;;;5136294;27;20194;-91
2021/06/19 04:28:41;;;;;;;33.07;30.53;;;22.40;99.90;;;;;;5135210;27;20217;-88
2021/06/19 04:31:07;;;;;;;32.67;30.37;;;22.50;99.90;;;;;;5135378;27;20192;-87
2021/06/19 04:33:33;;;;;;;31.93;29.30;;;22.60;99.90;;;;;;5117292;27;20187;-88
2021/06/19 04:35:58;;;;;;;34.50;31.70;;;22.70;99.90;;;;;;5135969;27;20173;-89
2021/06/19 04:38:24;;;;;;;32.40;29.87;;;22.70;99.90;;;;;;5135939;27;20230;-87
2021/06/19 04:46:14;;;;;;;31.97;29.57;;;22.70;99.90;;;;;;5135614;27;20416;-89
2021/06/19 04:48:39;;;;;;;33.37;30.87;;;22.60;99.90;;;;;;5135455;27;20477;-88
2021/06/19 04:51:05;;;;;;;31.30;29.00;;;22.80;99.90;;;;;;5135580;27;20177;-87
2021/06/19 04:53:31;;;;;;;31.40;28.90;;;22.90;99.90;;;;;;5135682;27;20547;-87
2021/06/19 04:56:00;;;;;;;32.80;29.90;;;23.00;99.90;;;;;;5133979;27;20417;-89
2021/06/19 04:58:26;;;;;;;31.30;28.80;;;23.10;99.90;;;;;;5135247;27;20644;-87
2021/06/19 05:00:51;;;;;;;30.47;28.27;;;23.20;99.90;;;;;;5135447;27;20414;-86
2021/06/19 05:03:18;;;;;;;33.60;30.87;;;23.10;99.90;;;;;;5133880;27;20173;-86
2021/06/19 05:05:44;;;;;;;31.97;29.60;;;23.30;99.90;;;;;;5135100;27;20648;-87
2021/06/19 05:08:10;;;;;;;31.30;29.00;;;23.40;99.90;;;;;;5135001;27;20471;-87
2021/06/19 05:10:36;;;;;;;33.90;30.77;;;23.50;99.90;;;;;;5134737;27;20510;-87
2021/06/19 05:13:01;;;;;;;32.50;29.67;;;23.60;99.90;;;;;;5134832;27;20566;-87
2021/06/19 05:15:27;;;;;;;34.80;31.97;;;23.70;99.90;;;;;;5133803;27;20178;-87
2021/06/19 05:17:56;;;;;;;30.83;28.67;;;23.70;99.90;;;;;;5134885;27;20205;-88
2021/06/19 05:20:22;;;;;;;31.73;29.40;;;23.60;99.90;;;;;;5135013;27;20174;-87
2021/06/19 05:22:48;;;;;;;34.70;31.80;;;23.70;99.90;;;;;;5135178;27;20916;-86
2021/06/19 05:25:15;;;;;;;32.70;30.20;;;23.60;99.90;;;;;;5134710;27;20419;-86
2021/06/19 05:27:42;;;;;;;32.90;30.40;;;23.50;99.90;;;;;;5134428;27;20472;-86
2021/06/19 05:30:12;;;;;;;34.10;31.50;;;23.60;99.90;;;;;;5134678;27;20406;-84
2021/06/19 05:32:38;;;;;;;36.43;33.27;;;23.50;99.90;;;;;;5133392;27;20414;-86
2021/06/19 05:35:04;;;;;;;37.33;34.43;;;23.50;99.90;;;;;;5134637;27;20497;-91
2021/06/19 05:37:29;;;;;;;38.30;35.53;;;23.40;99.90;;;;;;5134649;27;20408;-87
2021/06/19 05:39:55;;;;;;;37.33;34.13;;;23.40;99.90;;;;;;5134590;27;20407;-87
2021/06/19 05:42:21;;;;;;;37.10;34.10;;;23.50;99.90;;;;;;5133972;27;20637;-86
2021/06/19 05:44:47;;;;;;;37.03;34.33;;;23.70;99.90;;;;;;5134540;27;20192;-86
2021/06/19 05:47:12;;;;;;;34.20;31.57;;;24.00;99.90;;;;;;5134148;27;20863;-86
2021/06/19 05:49:38;;;;;;;35.03;32.40;;;24.20;99.90;;;;;;5134524;27;20192;-86
2021/06/19 05:52:04;;;;;;;36.00;33.10;;;24.40;99.90;;;;;;5134221;27;20176;-86
2021/06/19 05:54:35;;;;;;;35.00;32.20;;;24.70;99.90;;;;;;5132893;27;20178;-85
2021/06/19 05:57:02;;;;;;;35.63;32.93;;;25.00;99.90;;;;;;5133952;27;20399;-85
2021/06/19 05:59:27;;;;;;;35.47;32.47;;;25.30;99.90;;;;;;5134312;27;20411;-86
2021/06/19 06:01:53;;;;;;;33.50;30.70;;;25.70;99.90;;;;;;5134195;27;20464;-86
2021/06/19 06:04:19;;;;;;;34.90;32.00;;;26.00;99.90;;;;;;5133271;27;20192;-86
2021/06/19 06:06:44;;;;;;;33.37;30.83;;;26.10;99.90;;;;;;5134153;27;20265;-86
2021/06/19 06:09:10;;;;;;;31.50;29.20;;;26.20;99.90;;;;;;5134109;27;20699;-86
2021/06/19 06:11:36;;;;;;;30.20;27.60;;;26.40;99.90;;;;;;5133011;27;20215;-86
2021/06/19 06:14:01;;;;;;;30.53;28.23;;;26.60;99.90;;;;;;5134176;27;20615;-87
2021/06/19 06:16:27;;;;;;;29.37;26.70;;;26.80;99.90;;;;;;5133899;27;20300;-85
2021/06/19 06:18:52;;;;;;;24.93;22.77;;;27.00;99.90;;;;;;5134026;27;20177;-86
2021/06/19 06:21:18;;;;;;;23.83;21.93;;;27.10;99.90;;;;;;5133981;27;20181;-86
2021/06/19 06:23:44;;;;;;;21.53;19.57;;;27.20;99.90;;;;;;5133921;28;20173;-86
2021/06/19 06:26:09;;;;;;;19.73;17.80;;;27.40;99.90;;;;;;5132273;28;20657;-86
2021/06/19 06:28:38;;;;;;;17.97;16.37;;;27.40;99.90;;;;;;5133817;28;20283;-87
2021/06/19 06:31:03;;;;;;;21.77;18.63;;;27.50;96.20;;;;;;5133946;27;20685;-86
2021/06/19 06:33:30;;;;;;;18.47;17.03;;;27.70;93.30;;;;;;5133691;27;20412;-87
2021/06/19 06:35:56;;;;;;;18.70;16.43;;;27.90;72.00;;;;;;5133794;28;20249;-87
2021/06/19 06:38:21;;;;;;;18.30;16.80;;;28.00;57.10;;;;;;5133748;27;20436;-87
2021/06/19 06:40:47;;;;;;;18.53;17.03;;;28.10;18.50;;;;;;5133491;27;20167;-86
2021/06/19 06:43:12;;;;;;;17.03;15.43;;;28.40;17.00;;;;;;5132446;28;20167;-86
2021/06/19 06:45:38;;;;;;;15.80;14.20;;;28.80;1.00;;;;;;5133722;28;20261;-87
2021/06/19 06:48:05;;;;;;;16.10;14.47;;;28.70;1.00;;;;;;5132400;28;20213;-87
2021/06/19 06:50:31;;;;;;;15.60;14.30;;;28.50;1.00;;;;;;5133743;27;20169;-87
2021/06/19 06:52:56;;;;;;;14.10;12.80;;;29.10;1.00;;;;;;5133685;28;20765;-87
2021/06/19 06:55:22;;;;;;;14.77;13.27;;;29.20;1.00;;;;;;5132008;28;20179;-86
2021/06/19 06:57:48;;;;;;;14.70;13.20;;;28.30;1.00;;;;;;5133772;28;20512;-86
2021/06/19 07:00:14;;;;;;;16.33;14.57;;;27.80;9.20;;;;;;5136495;27;20241;-86
2021/06/19 07:02:41;;;;;;;14.43;13.13;;;28.00;27.70;;;;;;5142672;27;20265;-87
2021/06/19 07:05:10;;;;;;;15.50;13.90;;;27.80;24.50;;;;;;5141495;27;20403;-86
2021/06/19 07:07:38;;;;;;;14.47;13.27;;;29.90;1.00;;;;;;5140045;27;20479;-86
2021/06/19 07:10:09;;;;;;;13.97;12.57;;;31.90;99.90;;;;;;5141892;27;20419;-86
2021/06/19 07:12:41;;;;;;;13.30;11.40;;;32.80;82.90;;;;;;5142689;27;20526;-86
2021/06/19 07:15:07;;;;;;;16.43;11.00;;;33.10;1.00;;;;;;5140248;27;20473;-88
2021/06/19 07:17:33;;;;;;;12.87;11.60;;;33.40;99.90;;;;;;5144668;27;20783;-87
2021/06/19 07:19:58;;;;;;;12.70;10.63;;;34.00;99.90;;;;;;5143100;27;20412;-87
2021/06/19 07:22:24;;;;;;;9.97;9.10;;;34.40;99.90;;;;;;5141485;27;20563;-87
2021/06/19 07:24:50;;;;;;;10.03;9.03;;;34.40;99.90;;;;;;5146681;27;20202;-87
2021/06/19 07:27:15;;;;;;;10.17;8.20;;;34.40;99.90;;;;;;5148062;27;20202;-87
2021/06/19 07:29:41;;;;;;;8.93;8.23;;;34.20;99.90;;;;;;5149138;27;20197;-87
2021/06/19 07:32:07;;;;;;;8.27;7.53;;;34.40;40.80;;;;;;5145978;27;20163;-86
2021/06/19 07:34:33;;;;;;;6.97;6.37;;;34.50;99.90;;;;;;5146921;27;20439;-86
2021/06/19 07:36:59;;;;;;;7.10;6.03;;;34.40;1.00;;;;;;5145802;27;20686;-87
2021/06/19 07:39:25;;;;;;;7.73;6.73;;;34.50;1.00;;;;;;5151771;27;20420;-86
2021/06/19 07:41:51;;;;;;;10.67;6.90;;;34.30;1.00;;;;;;5156119;27;20181;-86
2021/06/19 07:44:17;;;;;;;9.40;7.50;;;34.60;1.00;;;;;;5157587;27;20637;-87
2021/06/19 07:46:43;;;;;;;8.03;7.23;;;34.90;1.00;;;;;;5157626;27;20412;-87
2021/06/19 07:49:08;;;;;;;13.30;5.87;;;34.70;1.00;;;;;;5157608;27;20206;-90
2021/06/19 07:51:34;;;;;;;4.37;3.90;;;34.90;99.90;;;;;;5157763;27;20769;-89
2021/06/19 07:54:00;;;;;;;4.07;3.67;;;34.80;99.90;;;;;;5156347;27;20258;-87
2021/06/19 07:56:26;;;;;;;5.50;3.90;;;34.60;99.90;;;;;;5155921;27;20174;-86
2021/06/19 07:58:52;;;;;;;4.83;2.53;;;34.70;99.90;;;;;;5156306;27;20173;-85
2021/06/19 08:01:17;;;;;;;3.93;3.63;;;34.80;99.90;;;;;;5157344;27;20408;-86
2021/06/19 08:03:43;;;;;;;3.47;3.17;;;34.80;99.90;;;;;;5157349;27;20527;-86
2021/06/19 08:06:08;;;;;;;4.80;3.47;;;34.70;99.90;;;;;;5157289;27;20637;-85
2021/06/19 08:08:34;;;;;;;3.60;2.60;;;34.60;99.90;;;;;;5157011;27;20213;-85
2021/06/19 08:11:00;;;;;;;4.77;3.10;;;34.90;99.90;;;;;;5156810;27;20186;-82
2021/06/19 08:13:26;;;;;;;4.13;2.33;;;34.80;99.90;;;;;;5156824;27;20279;-83
2021/06/19 08:15:55;;;;;;;2.90;2.60;;;35.10;99.90;;;;;;5157178;27;20171;-85
2021/06/19 08:18:21;;;;;;;3.57;2.70;;;35.10;99.90;;;;;;5155782;27;20586;-82
2021/06/19 08:20:46;;;;;;;2.57;2.37;;;35.00;99.90;;;;;;5156903;27;20428;-84
2021/06/19 08:23:12;;;;;;;3.07;2.83;;;34.80;99.90;;;;;;5156896;27;20177;-81
2021/06/19 08:25:37;;;;;;;3.13;2.70;;;35.10;99.90;;;;;;5156574;27;20167;-81
2021/06/19 08:28:03;;;;;;;3.60;2.73;;;35.20;99.90;;;;;;5156750;27;20206;-82
2021/06/19 08:30:29;;;;;;;3.70;2.23;;;35.80;99.90;;;;;;5156798;27;20205;-83
2021/06/19 08:32:55;;;;;;;2.27;2.07;;;35.30;99.90;;;;;;5156313;27;20177;-81
2021/06/19 08:35:20;;;;;;;1.90;1.80;;;35.60;99.90;;;;;;5156499;27;20185;-82
2021/06/19 08:37:46;;;;;;;4.37;2.43;;;35.70;99.90;;;;;;5156701;27;20174;-81
2021/06/19 08:40:12;;;;;;;4.87;2.27;;;35.60;99.90;;;;;;5156282;27;20168;-81
2021/06/19 08:42:37;;;;;;;2.60;2.20;;;35.70;99.90;;;;;;5156472;27;20182;-83
2021/06/19 08:45:04;;;;;;;2.73;1.73;;;35.80;96.60;;;;;;5156483;27;20167;-83
2021/06/19 08:47:36;;;;;;;3.67;2.00;;;35.60;93.10;;;;;;5156300;27;20206;-83
2021/06/19 08:50:14;;;;;;;4.43;1.93;;;35.50;93.10;;;;;;5156531;27;20436;-85
2021/06/19 08:52:41;;;;;;;3.93;1.63;;;35.30;83.30;;;;;;5156396;27;20415;-81
2021/06/19 08:55:11;;;;;;;1.90;1.77;;;35.60;94.70;;;;;;5154769;27;20419;-82
2021/06/19 08:57:36;;;;;;;2.37;2.13;;;35.60;83.50;;;;;;5156430;27;20463;-82
2021/06/19 09:00:05;;;;;;;2.50;1.50;;;35.60;82.10;;;;;;5156129;27;20411;-82
2021/06/19 09:02:31;;;;;;;2.97;1.20;;;35.90;68.70;;;;;;5154900;27;20171;-83
2021/06/19 09:05:04;;;;;;;2.97;1.30;;;35.80;47.00;;;;;;5156160;27;20420;-83
2021/06/19 09:07:50;;;;;;;2.50;1.40;;;35.40;39.00;;;;;;5154955;27;20669;-83
2021/06/19 09:10:36;;;;;;;3.47;1.10;;;35.50;43.60;;;;;;5155524;27;20411;-81
2021/06/19 09:13:12;;;;;;;2.20;1.13;;;35.80;37.80;;;;;;5154739;27;20466;-84
2021/06/19 09:15:44;;;;;;;1.30;1.20;;;35.90;35.20;;;;;;5155939;27;20767;-82
2021/06/19 09:18:19;;;;;;;2.17;1.50;;;35.60;33.50;;;;;;5154665;27;20416;-81
2021/06/19 09:20:53;;;;;;;1.90;1.07;;;35.90;40.40;;;;;;5155843;27;20399;-82
2021/06/19 09:23:27;;;;;;;1.77;1.43;;;36.60;31.80;;;;;;5156053;27;20863;-84
2021/06/19 09:26:17;;;;;;;2.03;1.27;;;35.80;20.60;;;;;;5154238;27;20412;-82
2021/06/19 09:28:56;;;;;;;3.30;1.67;;;35.60;19.00;;;;;;5154123;27;20482;-82
2021/06/19 09:31:44;;;;;;;1.50;1.40;;;35.60;20.40;;;;;;5155379;27;20426;-82
2021/06/19 09:34:09;;;;;;;3.07;1.50;;;35.50;24.20;;;;;;5152747;27;20414;-82
2021/06/19 09:36:48;;;;;;;3.63;1.90;;;35.60;20.20;;;;;;5155496;27;20483;-81
2021/06/19 09:39:15;;;;;;;2.30;1.47;;;35.20;18.10;;;;;;5155597;27;20163;-81
2021/06/19 09:41:51;;;;;;;2.17;1.97;;;34.90;22.20;;;;;;5155145;27;20396;-84
2021/06/19 09:44:31;;;;;;;1.87;1.33;;;35.50;28.60;;;;;;5155389;27;20891;-82
2021/06/19 09:46:57;;;;;;;4.40;1.90;;;35.60;31.90;;;;;;5154852;27;20397;-81
2021/06/19 09:49:33;;;;;;;2.37;1.70;;;35.60;32.20;;;;;;5155248;27;20911;-82
2021/06/19 09:51:59;;;;;;;1.87;1.63;;;35.10;26.70;;;;;;5155354;27;20441;-83
2021/06/19 09:54:24;;;;;;;4.67;1.93;;;34.80;25.70;;;;;;5155190;27;20740;-82
2021/06/19 09:56:52;;;;;;;2.73;1.50;;;35.20;36.80;;;;;;5154841;27;20407;-85
2021/06/19 09:59:33;;;;;;;1.70;1.60;;;34.20;47.20;;;;;;5153852;27;20166;-83
2021/06/19 10:02:01;;;;;;;2.20;1.70;;;34.90;38.80;;;;;;5154047;27;20411;-82
2021/06/19 10:04:29;;;;;;;2.03;1.53;;;35.50;41.40;;;;;;5154976;27;20404;-82
2021/06/19 10:06:55;;;;;;;3.17;1.60;;;35.60;35.00;;;;;;5153693;27;20418;-82
2021/06/19 10:09:22;;;;;;;4.30;1.80;;;36.00;31.70;;;;;;5144901;27;20513;-82
2021/06/19 10:11:53;;;;;;;2.30;1.23;;;35.90;20.60;;;;;;5133447;27;20456;-84
2021/06/19 10:14:21;;;;;;;2.03;1.80;;;35.60;18.50;;;;;;5134286;27;20389;-82
2021/06/19 10:16:55;;;;;;;2.23;1.90;;;35.90;19.10;;;;;;5134090;27;20419;-82
2021/06/19 10:19:23;;;;;;;3.33;1.90;;;35.80;15.70;;;;;;5134179;27;20959;-81
2021/06/19 10:21:51;;;;;;;1.60;1.50;;;35.90;19.40;;;;;;5132899;27;20420;-82
2021/06/19 10:24:19;;;;;;;1.60;1.50;;;35.90;16.00;;;;;;5134052;27;20465;-85
2021/06/19 10:26:45;;;;;;;2.00;1.17;;;35.50;16.00;;;;;;5133775;27;20803;-83
2021/06/19 10:29:12;;;;;;;4.33;1.70;;;35.90;20.40;;;;;;5132767;28;20464;-82
2021/06/19 10:31:41;;;;;;;3.13;1.70;;;35.60;15.50;;;;;;5134136;27;20400;-82
2021/06/19 10:34:21;;;;;;;4.63;1.70;;;35.60;10.50;;;;;;5132756;28;20481;-82
2021/06/19 10:36:47;;;;;;;4.20;1.37;;;35.40;7.60;;;;;;5133942;27;20412;-83
2021/06/19 10:39:34;;;;;;;2.13;1.77;;;35.60;5.70;;;;;;5134047;27;20420;-82
2021/06/19 10:42:01;;;;;;;2.03;1.80;;;35.80;9.90;;;;;;5134022;27;20732;-82
2021/06/19 10:44:51;;;;;;;2.80;1.53;;;35.70;6.20;;;;;;5133985;27;20420;-85
2021/06/19 10:47:23;;;;;;;1.93;1.83;;;35.50;13.30;;;;;;5133705;28;20454;-81
2021/06/19 10:49:50;;;;;;;2.53;1.63;;;35.20;9.30;;;;;;5133830;27;20411;-82
2021/06/19 10:52:34;;;;;;;3.77;2.03;;;35.60;18.80;;;;;;5138835;27;20416;-84
2021/06/19 10:55:12;;;;;;;3.17;1.87;;;35.80;17.90;;;;;;5133444;27;20412;-82
2021/06/19 10:57:40;;;;;;;3.13;2.00;;;36.40;20.00;;;;;;5136534;27;20416;-83
2021/06/19 11:00:25;;;;;;;1.90;1.33;;;35.80;8.70;;;;;;5131934;27;20439;-83
2021/06/19 11:02:52;;;;;;;2.70;1.73;;;35.60;12.80;;;;;;5124632;27;20412;-85
2021/06/19 11:05:42;;;;;;;2.73;2.17;;;36.20;28.80;;;;;;5147952;27;20411;-84
2021/06/19 11:08:13;;;;;;;1.70;1.57;;;35.80;10.70;;;;;;5145684;27;20963;-84
2021/06/19 11:10:48;;;;;;;3.07;1.30;;;35.90;12.80;;;;;;5157064;27;20410;-83
2021/06/19 11:13:28;;;;;;;2.07;1.87;;;35.40;10.80;;;;;;5158111;27;20453;-85
2021/06/19 11:15:56;;;;;;;1.53;1.30;;;35.70;13.00;;;;;;5158282;27;20439;-85
2021/06/19 11:18:51;;;;;;;1.77;1.47;;;35.60;9.60;;;;;;5156928;27;20442;-83
2021/06/19 11:21:20;;;;;;;1.83;1.50;;;35.70;6.00;;;;;;5150464;27;20922;-83
2021/06/19 11:24:07;;;;;;;1.93;1.70;;;35.60;6.00;;;;;;5157971;27;20415;-84
2021/06/19 11:27:01;;;;;;;1.70;1.33;;;35.90;5.60;;;;;;5156506;27;20411;-83
2021/06/19 11:29:42;;;;;;;2.37;1.73;;;36.00;6.00;;;;;;5157990;27;20419;-85
2021/06/19 11:32:28;;;;;;;1.67;1.57;;;35.80;2.00;;;;;;5158171;27;20868;-84
2021/06/19 11:34:56;;;;;;;1.93;1.20;;;35.60;1.00;;;;;;5157634;27;20414;-83
2021/06/19 11:37:22;;;;;;;1.70;1.60;;;35.70;1.20;;;;;;5157865;27;20902;-83
2021/06/19 11:39:48;;;;;;;3.67;1.50;;;35.80;5.60;;;;;;5157506;27;20414;-83
2021/06/19 11:42:14;;;;;;;2.30;1.57;;;36.20;15.50;;;;;;5157728;27;20407;-83
2021/06/19 11:44:42;;;;;;;2.70;1.87;;;35.70;1.00;;;;;;5143892;27;20174;-84
2021/06/19 11:47:09;;;;;;;6.00;2.10;;;35.70;1.00;;;;;;5125642;27;20529;-85
2021/06/19 11:49:37;;;;;;;2.73;1.60;;;35.70;1.00;;;;;;5132958;27;20417;-84
2021/06/19 11:52:04;;;;;;;2.13;1.30;;;35.90;4.90;;;;;;5128212;27;20412;-89
2021/06/19 11:54:30;;;;;;;1.70;1.60;;;36.10;3.50;;;;;;5119860;27;20429;-88
2021/06/19 11:56:56;;;;;;;1.87;1.30;;;35.80;1.00;;;;;;5127310;27;20412;-85
2021/06/19 11:59:23;;;;;;;2.30;1.30;;;36.30;3.20;;;;;;5125815;27;20181;-85
2021/06/19 12:01:50;;;;;;;3.83;1.77;;;36.20;1.00;;;;;;5126988;27;20420;-84
2021/06/19 12:04:20;;;;;;;2.80;2.17;;;36.30;6.30;;;;;;5124405;27;20506;-88
2021/06/19 12:06:51;;;;;;;5.30;1.73;;;36.30;1.00;;;;;;5124004;27;20467;-84
2021/06/19 12:09:25;;;;;;;2.03;1.30;;;36.80;1.00;;;;;;5124205;27;20467;-84
2021/06/19 12:11:55;;;;;;;1.60;1.50;;;36.40;1.00;;;;;;5126405;27;20453;-85
2021/06/19 12:14:30;;;;;;;1.90;1.70;;;36.20;1.00;;;;;;5128851;27;20764;-83
2021/06/19 12:17:05;;;;;;;1.97;1.87;;;36.00;1.00;;;;;;5129009;27;20400;-84
2021/06/19 12:19:34;;;;;;;1.70;1.60;;;36.10;1.00;;;;;;5117558;27;20520;-85
2021/06/19 12:22:04;;;;;;;1.33;1.23;;;36.20;1.00;;;;;;5115590;27;20411;-84
2021/06/19 12:24:36;;;;;;;7.00;1.70;;;36.30;1.00;;;;;;5115285;28;20478;-84
2021/06/19 12:27:09;;;;;;;1.77;1.67;;;36.00;1.00;;;;;;5113999;28;20429;-84
2021/06/19 12:29:37;;;;;;;1.97;1.60;;;36.30;1.00;;;;;;5114331;28;20417;-84
2021/06/19 12:32:17;;;;;;;1.80;1.70;;;36.50;1.00;;;;;;5115235;28;20408;-84
2021/06/19 12:34:42;;;;;;;2.27;1.87;;;36.20;1.00;;;;;;5115406;28;20916;-85
2021/06/19 12:37:08;;;;;;;1.47;1.37;;;36.00;1.00;;;;;;5123740;27;20434;-83
2021/06/19 12:39:34;;;;;;;2.33;1.80;;;35.90;1.00;;;;;;5154674;27;20170;-84
2021/06/19 12:41:59;;;;;;;1.63;1.53;;;36.10;1.00;;;;;;5156528;27;20586;-84
2021/06/19 12:44:25;;;;;;;2.23;1.77;;;36.30;1.00;;;;;;5155127;27;20274;-84
2021/06/19 12:47:17;;;;;;;2.37;1.70;;;36.40;1.00;;;;;;5156411;27;20245;-84